My Meet Scores
Kate Kelly, Aspire Gymnastics Academy - MyMeetScores.com
Top100 | Top Teams | Upcoming Meets | Completed Meets | Latest | Add Scores | Help| Support | Bookmark and Share

Kate Kelly, Aspire Gymnastics Academy
Personal Bests
LevelVault BarsBeamFloorAA
39.6509.550 9.6009.35037.600
49.1508.850 9.3509.02535.100
Meet Scores
Date Meet Team Session Level Division Vault Bars Beam Floor AA
2019-03-22 Illinois Gymnastics State Championships Aspire Gymnastics Academy 4 4 JR F 8.450 23T 8.600 20 8.950 16T 8.600 23T 34.600 20
2019-03-08 Lucky Invite Aspire Gymnastics Academy A07 4 Sr 8.300 11T 8.450 18 9.150 3T 8.500 17 34.400 14
2019-02-23 Kinetic Classic 2019 Aspire Gymnastics Academy 1 4 Older 8.250 526T 8.425 464T 8.875 333T 8.800 368T 34.350 449T
2019-02-15 Big ClassicBIG CLASSIC Aspire Gymnastics Academy 5A 4 Child D 8.075 13 8.400 11 9.350 2 8.475 9 34.300 9
2019-01-25 UGA Invitational Aspire Gymnastics Academy B06 4 Jr B 8.550 5 7.950 13 9.325 3 8.700 6 34.525 7
2019-01-18 2019 Bravo Classic Aspire Gymnastics Academy 3B 4 Sr 9.150 5 8.050 17 7.500 20 8.725 9 33.425 16
2018-12-14 2018 Aspire Classic Aspire Gymnastics Academy 5A 4 Older 8.725 13 8.400 17 8.950 16 9.025 9 35.100 18
2018-12-07 St. Nick Invite 2018 Aspire Gymnastics Academy 6A 4 SrA 8.950 7T 8.550 10 8.500 11 8.750 6T 34.750 7
2018-11-17 Paul Hamm Thanksgiving Class WOMENS Aspire Gymnastics Academy 6 4 Middle 8.600 17 8.850 14T 8.625 21 8.800 20T 34.875 20
2018-05-03 Illinois USA Gymnastics Level 3 State Championships Aspire Gymnastics Academy 5 3 Sr A 9.600 7 9.350 10T 9.300 11 9.350 14 37.600 10
2018-02-16 Big Classic Aspire Gymnastics Academy 1B 3 Child C 9.050 4 9.550 1 9.400 2T 9.250 3 37.250 2
2018-01-26 2018 UGA Classic Aspire Gymnastics Academy A8 3 Sr A 9.225 3 8.350 11T 9.600 3 9.350 4T 36.525 8
2018-01-19 2018 Bravo Classic Aspire Gymnastics Academy 7B 3 Sr 8.900 12T 9.550 3 9.300 6 9.225 3T 36.975 3
2017-12-15 2017 Aspire Classic Aspire Gymnastics Academy 11A 3 Older 9.650 5T 9.550 5T 9.150 9T 9.250 12T 37.600 7
2017-12-08 St. Nick Invite Aspire Gymnastics Academy 5A 3 SrA 9.500 1T 9.400 1T 9.300 1T 8.550 8 36.750 2
2017-11-16 Paul Hamm Thanksgiving Classic - Women Aspire Gymnastics Academy 1 3 Older 9.200 6T 9.325 4T 8.700 9 9.000 6 36.225 6
2017-03-30 2017 Illinois Level 3 & 5 State Aspire Gymnastics Academy All 3 Yh F 9.325 14 9.175 16T 8.700 19T 8.825 20T 36.025 21
2017-02-24 Kinetic Classic Aspire Gymnastics Academy 4,5,6,7 3 All Ages 8.900 86T 8.900 61T 8.650 66T 8.325 105T 34.775 78T
2017-01-27 2017 UGA Invitational Aspire Gymnastics Academy B6 3 Sr A 8.350 15T 8.750 13 8.050 16T 7.800 16 32.950 16
2017-01-20 2017 Bravo Classic Aspire Gymnastics Academy 11B 3 8yrs 8.950 15T 9.050 13 8.600 16 6.450 24 33.050 22
2016-12-16 2016 Aspire Classic Aspire Gymnastics Academy 12 3 Middle 8.050 20 8.450 18 7.900 15 8.100 21 32.500 19
2016-11-19 Paul Hamm Thanksgiving Classic - 2016 Girls Aspire Gymnastics Academy 5 3 8 yrs 8.350 12 8.600 9 8.200 11 7.400 15T 32.550 12
Get your scores on
a t-shirt, pin, or hoodie

www.lazysuits.com